Time;durP1;ratioP1;P1;durP2;ratioP2;P2;SDS_P1;SDS_P2;PMS_P1;PMS_P2;Temp;Humidity;BMP_temperature;BMP_pressure;BME280_temperature;BME280_humidity;BME280_pressure;Samples;Min_cycle;Max_cycle;Signal;HPM_P1;HPM_P2
2022/08/19 00:02:12;;;;;;;10.00;4.50;;;19.40;99.90;;;;;;5054322;28;20032;-68
2022/08/19 00:04:37;;;;;;;11.27;4.45;;;19.40;99.90;;;;;;5048443;28;20543;-68
2022/08/19 00:07:05;;;;;;;12.40;4.57;;;19.40;99.90;;;;;;5051045;28;20590;-68
2022/08/19 00:09:31;;;;;;;8.50;4.55;;;19.30;99.90;;;;;;5046264;28;20395;-68
2022/08/19 00:11:58;;;;;;;12.35;4.72;;;19.30;99.90;;;;;;5046719;28;20443;-68
2022/08/19 00:14:25;;;;;;;11.05;4.07;;;19.40;99.90;;;;;;5049832;28;21333;-68
2022/08/19 00:16:53;;;;;;;11.77;4.20;;;19.30;99.90;;;;;;5052641;28;20032;-69
2022/08/19 00:19:20;;;;;;;14.80;4.68;;;19.30;99.90;;;;;;5048328;28;20037;-70
2022/08/19 00:21:46;;;;;;;11.30;4.22;;;19.30;99.90;;;;;;5047549;28;20487;-72
2022/08/19 00:24:13;;;;;;;10.18;4.68;;;19.30;99.90;;;;;;5045669;28;20039;-67
2022/08/19 00:26:40;;;;;;;11.77;3.95;;;19.40;99.90;;;;;;5041715;28;20021;-68
2022/08/19 00:29:12;;;;;;;11.23;4.25;;;19.40;99.90;;;;;;5046354;28;20036;-69
2022/08/19 00:31:39;;;;;;;10.73;4.13;;;19.40;99.90;;;;;;5047789;28;20068;-68
2022/08/19 00:34:04;;;;;;;11.25;4.25;;;19.40;99.90;;;;;;5046495;28;20059;-69
2022/08/19 00:36:32;;;;;;;10.88;4.07;;;19.40;99.90;;;;;;5048452;28;20395;-69
2022/08/19 00:38:59;;;;;;;11.35;3.50;;;19.40;99.90;;;;;;5049562;28;20128;-69
2022/08/19 00:41:25;;;;;;;8.25;3.05;;;19.40;99.90;;;;;;5049362;28;20102;-67
2022/08/19 00:44:05;;;;;;;7.85;3.75;;;19.40;99.90;;;;;;5058250;28;20029;-68
2022/08/19 00:46:35;;;;;;;8.13;3.13;;;19.40;99.90;;;;;;5047818;28;20108;-68
2022/08/19 00:49:06;;;;;;;8.98;3.17;;;19.50;99.90;;;;;;5050992;28;20044;-69
2022/08/19 00:51:32;;;;;;;9.82;3.00;;;19.50;99.90;;;;;;5045141;28;20588;-70
2022/08/19 00:54:00;;;;;;;7.63;2.92;;;19.50;99.90;;;;;;5051668;28;20028;-68
2022/08/19 00:56:26;;;;;;;8.07;2.90;;;19.50;99.90;;;;;;5049456;28;20115;-68
2022/08/19 00:58:56;;;;;;;7.97;3.13;;;19.40;99.90;;;;;;5045266;28;20052;-69
2022/08/19 01:01:22;;;;;;;13.52;3.40;;;19.40;99.90;;;;;;5046491;28;20116;-70
2022/08/19 01:03:47;;;;;;;11.95;3.67;;;19.40;99.90;;;;;;5046740;28;20694;-68
2022/08/19 01:06:14;;;;;;;7.68;3.33;;;19.40;99.90;;;;;;5045942;28;20138;-70
2022/08/19 01:08:40;;;;;;;8.60;3.10;;;19.30;99.90;;;;;;5044572;28;20725;-68
2022/08/19 01:11:07;;;;;;;8.75;3.08;;;19.30;99.90;;;;;;5046610;28;20467;-68
2022/08/19 01:13:34;;;;;;;9.55;3.00;;;19.30;99.90;;;;;;5046917;28;20090;-71
2022/08/19 01:16:09;;;;;;;10.68;3.15;;;19.30;99.90;;;;;;5047473;28;20583;-69
2022/08/19 01:18:40;;;;;;;6.78;2.80;;;19.20;99.90;;;;;;5051112;28;20120;-68
2022/08/19 01:21:14;;;;;;;7.63;3.10;;;19.30;99.90;;;;;;5050694;28;20068;-67
2022/08/19 01:23:43;;;;;;;9.07;2.78;;;19.30;99.90;;;;;;5046460;28;20021;-69
2022/08/19 01:26:15;;;;;;;10.30;3.13;;;19.30;99.90;;;;;;5047115;28;20108;-68
2022/08/19 01:28:42;;;;;;;8.73;3.25;;;19.30;99.90;;;;;;5047870;28;20406;-68
2022/08/19 01:31:12;;;;;;;8.65;2.83;;;19.30;99.90;;;;;;5047888;28;20028;-68
2022/08/19 01:33:38;;;;;;;9.10;3.65;;;19.30;99.90;;;;;;5060686;28;20076;-68
2022/08/19 01:36:16;;;;;;;8.85;2.70;;;19.30;99.90;;;;;;5053610;28;20104;-68
2022/08/19 01:38:43;;;;;;;9.77;3.55;;;19.30;99.90;;;;;;5048711;28;20028;-68
2022/08/19 01:41:10;;;;;;;9.13;2.83;;;19.30;99.90;;;;;;5053539;28;20035;-69
2022/08/19 01:43:37;;;;;;;9.40;3.15;;;19.30;99.90;;;;;;5052373;28;20433;-68
2022/08/19 01:46:04;;;;;;;7.97;3.20;;;19.30;99.90;;;;;;5046850;28;20536;-69
2022/08/19 01:48:34;;;;;;;9.63;3.53;;;19.30;99.90;;;;;;5048800;28;20852;-69
2022/08/19 01:51:00;;;;;;;9.35;3.20;;;19.30;99.90;;;;;;5049127;28;20064;-69
2022/08/19 01:53:26;;;;;;;8.82;3.55;;;19.30;99.90;;;;;;5051244;28;20056;-68
2022/08/19 01:55:51;;;;;;;8.05;2.97;;;19.30;99.90;;;;;;5049340;28;20445;-69
2022/08/19 01:58:22;;;;;;;7.82;2.90;;;19.30;99.90;;;;;;5046779;28;20041;-69
2022/08/19 02:00:48;;;;;;;7.30;2.92;;;19.30;99.90;;;;;;5048427;28;20080;-71
2022/08/19 02:03:14;;;;;;;6.80;2.55;;;19.30;99.90;;;;;;5051529;28;20052;-69
2022/08/19 02:05:40;;;;;;;9.05;2.47;;;19.30;99.90;;;;;;5054143;28;20491;-68
2022/08/19 02:08:07;;;;;;;5.88;2.22;;;19.30;99.90;;;;;;5050158;28;20068;-68
2022/08/19 02:10:33;;;;;;;6.78;2.58;;;19.30;99.90;;;;;;5050266;28;20116;-68
2022/08/19 02:12:59;;;;;;;6.65;2.28;;;19.30;99.90;;;;;;5048065;28;20167;-69
2022/08/19 02:15:25;;;;;;;6.90;1.92;;;19.30;99.90;;;;;;5057475;28;20024;-70
2022/08/19 02:17:51;;;;;;;9.98;2.50;;;19.30;99.90;;;;;;5053586;28;20027;-68
2022/08/19 02:20:17;;;;;;;6.03;2.30;;;19.40;99.90;;;;;;5060461;28;20048;-69
2022/08/19 02:22:43;;;;;;;8.73;2.50;;;19.30;99.90;;;;;;5069716;28;20033;-68
2022/08/19 02:25:12;;;;;;;7.82;1.90;;;19.30;99.90;;;;;;5070795;28;20040;-69
2022/08/19 02:27:38;;;;;;;6.82;2.28;;;19.30;99.90;;;;;;5068368;28;20108;-70
2022/08/19 02:30:06;;;;;;;6.93;2.25;;;19.30;99.90;;;;;;5050692;28;20562;-70
2022/08/19 02:32:32;;;;;;;9.48;2.40;;;19.30;99.90;;;;;;5059668;28;20064;-69
2022/08/19 02:34:57;;;;;;;5.60;1.83;;;19.30;99.90;;;;;;5055596;28;20025;-69
2022/08/19 02:40:07;;;;;;;3.60;1.70;;;19.30;99.90;;;;;;5051792;28;20171;-68
2022/08/19 02:42:33;;;;;;;5.90;1.73;;;19.30;99.90;;;;;;5046667;28;20033;-68
2022/08/19 02:45:00;;;;;;;6.30;1.92;;;19.30;99.90;;;;;;5050717;28;20029;-68
2022/08/19 02:47:26;;;;;;;5.95;2.17;;;19.20;99.90;;;;;;5049138;28;20477;-68
2022/08/19 02:49:51;;;;;;;5.88;2.05;;;19.20;99.90;;;;;;5050350;28;20660;-70
2022/08/19 02:52:17;;;;;;;7.25;2.20;;;19.20;99.90;;;;;;5051279;28;20113;-69
2022/08/19 02:54:43;;;;;;;5.53;2.05;;;19.20;99.90;;;;;;5050144;28;20147;-70
2022/08/19 02:57:09;;;;;;;7.07;2.30;;;19.30;99.90;;;;;;5048938;28;20033;-71
2022/08/19 02:59:35;;;;;;;6.18;2.00;;;19.20;99.90;;;;;;5047401;28;20388;-68
2022/08/19 03:02:01;;;;;;;7.18;2.60;;;19.20;99.90;;;;;;5054589;28;20129;-71
2022/08/19 03:04:27;;;;;;;7.40;2.03;;;19.30;99.90;;;;;;5049505;28;20102;-70
2022/08/19 03:06:53;;;;;;;8.10;2.08;;;19.30;99.90;;;;;;5049460;28;20090;-69
2022/08/19 03:09:20;;;;;;;5.97;1.90;;;19.30;99.90;;;;;;5050393;28;20037;-67
2022/08/19 03:11:45;;;;;;;6.28;1.73;;;19.30;99.90;;;;;;5048641;28;20044;-69
2022/08/19 03:14:12;;;;;;;4.30;1.70;;;19.30;99.90;;;;;;5048847;28;20036;-69
2022/08/19 03:16:47;;;;;;;6.30;1.98;;;19.30;99.90;;;;;;5052868;28;20032;-68
2022/08/19 03:19:15;;;;;;;4.22;1.58;;;19.40;99.90;;;;;;5050029;28;20033;-71
2022/08/19 03:21:44;;;;;;;6.63;2.08;;;19.30;99.90;;;;;;5047794;28;20032;-69
2022/08/19 03:24:11;;;;;;;9.13;2.40;;;19.40;99.90;;;;;;5050827;28;20040;-69
2022/08/19 03:26:45;;;;;;;9.70;2.72;;;19.30;99.90;;;;;;5049141;28;20075;-69
2022/08/19 03:29:11;;;;;;;10.95;2.30;;;19.30;99.90;;;;;;5047116;28;20031;-69
2022/08/19 03:31:39;;;;;;;8.50;2.28;;;19.30;99.90;;;;;;5049132;28;20112;-67
2022/08/19 03:34:05;;;;;;;6.63;1.90;;;19.30;99.90;;;;;;5052325;28;20116;-70
2022/08/19 03:36:30;;;;;;;6.15;1.83;;;19.30;99.90;;;;;;5047214;28;20115;-67
2022/08/19 03:38:58;;;;;;;6.80;1.90;;;19.20;99.90;;;;;;5047299;28;20118;-68
2022/08/19 03:41:27;;;;;;;5.22;1.63;;;19.20;99.90;;;;;;5046507;28;20048;-68
2022/08/19 03:43:53;;;;;;;7.00;1.70;;;19.10;99.90;;;;;;5048733;28;20032;-69
2022/08/19 03:46:22;;;;;;;4.72;1.77;;;19.10;99.90;;;;;;5049257;28;20021;-67
2022/08/19 03:48:53;;;;;;;5.00;1.88;;;19.10;99.90;;;;;;5049622;28;20039;-68
2022/08/19 03:51:22;;;;;;;6.63;1.83;;;19.10;99.90;;;;;;5055951;28;20035;-68
2022/08/19 03:53:49;;;;;;;6.68;1.95;;;19.10;99.90;;;;;;5067813;28;20192;-68
2022/08/19 03:56:15;;;;;;;7.28;2.30;;;19.10;99.90;;;;;;5056381;28;20048;-68
2022/08/19 03:58:41;;;;;;;9.05;2.40;;;19.00;99.90;;;;;;5046392;28;20048;-67
2022/08/19 04:01:12;;;;;;;12.13;2.90;;;19.00;99.90;;;;;;5049046;28;20102;-68
2022/08/19 04:03:38;;;;;;;10.45;3.08;;;19.00;99.90;;;;;;5041998;28;20025;-70
2022/08/19 04:06:16;;;;;;;9.70;3.10;;;19.00;99.90;;;;;;5048034;28;20135;-67
2022/08/19 04:08:44;;;;;;;10.43;2.53;;;19.00;99.90;;;;;;5048555;28;20047;-67
2022/08/19 04:11:13;;;;;;;8.63;2.67;;;19.00;99.90;;;;;;5046338;28;20036;-66
2022/08/19 04:13:38;;;;;;;9.80;2.67;;;19.00;99.90;;;;;;5044685;28;20033;-68
2022/08/19 04:16:05;;;;;;;10.73;2.83;;;19.00;99.90;;;;;;5047402;28;20041;-68
2022/08/19 04:18:32;;;;;;;8.70;2.78;;;19.00;99.90;;;;;;5047892;28;20072;-68
2022/08/19 04:20:58;;;;;;;11.40;2.97;;;18.90;99.90;;;;;;5047932;28;20584;-69
2022/08/19 04:23:24;;;;;;;8.35;2.60;;;19.00;99.90;;;;;;5056331;28;20033;-68
2022/08/19 04:25:49;;;;;;;8.75;2.33;;;18.90;99.90;;;;;;5045964;28;20039;-67
2022/08/19 04:28:16;;;;;;;8.10;2.38;;;19.00;99.90;;;;;;5047392;28;20036;-67
2022/08/19 04:30:47;;;;;;;5.97;2.08;;;19.00;99.90;;;;;;5047746;28;20028;-68
2022/08/19 04:33:15;;;;;;;6.90;2.35;;;19.00;99.90;;;;;;5047568;28;20033;-68
2022/08/19 04:35:45;;;;;;;7.28;2.70;;;18.90;99.90;;;;;;5046823;28;20024;-68
2022/08/19 04:38:11;;;;;;;8.60;2.55;;;19.00;99.90;;;;;;5047589;28;20064;-68
2022/08/19 04:43:26;;;;;;;7.20;2.38;;;18.90;99.90;;;;;;5047288;28;20786;-68
2022/08/19 04:45:53;;;;;;;6.45;2.47;;;18.90;99.90;;;;;;5047984;28;20033;-68
2022/08/19 04:48:25;;;;;;;7.40;2.65;;;18.90;99.90;;;;;;5046101;28;20039;-69
2022/08/19 04:50:57;;;;;;;9.90;2.60;;;18.90;99.90;;;;;;5048076;28;20124;-68
2022/08/19 04:53:31;;;;;;;7.38;2.33;;;18.90;99.90;;;;;;5045200;28;20045;-69
2022/08/19 04:56:00;;;;;;;8.68;2.55;;;18.90;99.90;;;;;;5048392;28;20029;-68
2022/08/19 04:58:27;;;;;;;10.80;2.92;;;18.90;99.90;;;;;;5051026;28;20053;-68
2022/08/19 05:00:54;;;;;;;9.23;2.97;;;18.90;99.90;;;;;;5048018;28;20527;-68
2022/08/19 05:03:20;;;;;;;9.10;3.00;;;18.90;99.90;;;;;;5057740;28;20502;-68
2022/08/19 05:05:50;;;;;;;8.45;2.67;;;18.90;99.90;;;;;;5063734;28;22036;-68
2022/08/19 05:08:19;;;;;;;7.35;2.60;;;19.00;99.90;;;;;;5047035;28;20036;-68
2022/08/19 05:10:47;;;;;;;6.93;2.80;;;18.90;99.90;;;;;;5051424;28;20035;-68
2022/08/19 05:13:14;;;;;;;6.95;2.50;;;18.90;99.90;;;;;;5050595;28;20068;-68
2022/08/19 05:15:40;;;;;;;9.57;3.00;;;19.00;99.90;;;;;;5044972;28;20033;-67
2022/08/19 05:23:34;;;;;;;7.50;2.38;;;19.00;99.90;;;;;;5056395;28;20040;-66
2022/08/19 05:26:01;;;;;;;10.30;2.63;;;19.00;99.90;;;;;;5057961;28;20041;-68
2022/08/19 05:28:27;;;;;;;7.82;2.60;;;19.00;99.90;;;;;;5064914;28;20036;-67
2022/08/19 05:30:55;;;;;;;5.68;2.70;;;19.00;99.90;;;;;;5057946;28;20021;-67
2022/08/19 05:33:21;;;;;;;6.68;2.78;;;19.00;99.90;;;;;;5052195;28;20029;-67
2022/08/19 05:35:49;;;;;;;6.35;2.70;;;19.00;99.90;;;;;;5051166;28;20475;-68
2022/08/19 05:38:18;;;;;;;7.60;2.97;;;19.00;99.90;;;;;;5050592;28;20044;-68
2022/08/19 05:40:47;;;;;;;8.07;3.30;;;19.00;99.90;;;;;;5053746;28;20131;-67
2022/08/19 05:43:17;;;;;;;12.00;3.92;;;19.00;99.90;;;;;;5059360;28;20087;-68
2022/08/19 05:45:43;;;;;;;9.57;4.28;;;19.00;99.90;;;;;;5051323;28;20025;-67
2022/08/19 05:48:12;;;;;;;9.60;4.13;;;19.00;99.90;;;;;;5049327;28;20045;-66
2022/08/19 05:50:40;;;;;;;9.55;4.47;;;19.00;99.90;;;;;;5051064;28;20037;-67
2022/08/19 05:53:06;;;;;;;7.95;4.10;;;19.00;99.90;;;;;;5057971;28;20067;-67
2022/08/19 05:55:32;;;;;;;10.80;4.80;;;19.00;99.90;;;;;;5048596;28;20076;-67
2022/08/19 05:57:57;;;;;;;9.48;4.57;;;19.10;99.90;;;;;;5046498;28;20112;-67
2022/08/19 06:00:23;;;;;;;9.38;4.05;;;19.10;99.90;;;;;;5047317;28;20045;-68
2022/08/19 06:02:50;;;;;;;10.18;4.38;;;19.10;99.90;;;;;;5044660;28;20091;-66
2022/08/19 06:05:16;;;;;;;7.03;4.57;;;19.10;99.90;;;;;;5050264;28;20040;-67
2022/08/19 06:07:42;;;;;;;9.20;4.40;;;19.10;99.90;;;;;;5043392;28;20024;-67
2022/08/19 06:10:10;;;;;;;9.15;4.35;;;19.10;99.90;;;;;;5047476;28;20415;-67
2022/08/19 06:12:36;;;;;;;10.05;4.65;;;19.10;99.90;;;;;;5051965;28;22151;-67
2022/08/19 06:15:05;;;;;;;7.97;4.38;;;19.10;99.90;;;;;;5045173;28;20028;-67
2022/08/19 06:17:31;;;;;;;8.52;4.32;;;19.10;99.90;;;;;;5048580;28;20029;-67
2022/08/19 06:19:58;;;;;;;8.82;4.70;;;19.20;99.90;;;;;;5044208;28;20041;-67
2022/08/19 06:22:23;;;;;;;9.20;4.03;;;19.10;99.90;;;;;;5048675;28;20438;-67
2022/08/19 06:24:52;;;;;;;8.70;4.07;;;19.10;99.90;;;;;;5048736;28;20037;-67
2022/08/19 06:27:18;;;;;;;7.22;3.42;;;19.20;99.90;;;;;;5047020;28;20167;-67
2022/08/19 06:29:46;;;;;;;8.38;3.90;;;19.20;99.90;;;;;;5043654;28;20036;-67
2022/08/19 06:32:14;;;;;;;8.43;3.38;;;19.20;99.90;;;;;;5043623;28;20021;-67
2022/08/19 06:34:41;;;;;;;9.55;3.75;;;19.20;99.90;;;;;;5046153;28;20036;-66
2022/08/19 06:37:06;;;;;;;10.07;3.58;;;19.20;99.90;;;;;;5044535;28;20033;-66
2022/08/19 06:39:36;;;;;;;7.93;3.33;;;19.30;99.90;;;;;;5045320;28;20162;-66
2022/08/19 06:42:06;;;;;;;8.18;3.67;;;19.30;99.90;;;;;;5046424;28;20090;-67
2022/08/19 06:44:35;;;;;;;8.15;3.70;;;19.30;99.90;;;;;;5047956;28;20558;-66
2022/08/19 06:47:07;;;;;;;9.68;3.22;;;19.30;99.90;;;;;;5046267;28;20090;-67
2022/08/19 06:49:33;;;;;;;11.43;3.95;;;19.40;99.90;;;;;;5041336;28;20735;-67
2022/08/19 06:51:59;;;;;;;9.55;3.38;;;19.40;99.90;;;;;;5044528;28;20029;-67
2022/08/19 06:54:28;;;;;;;11.07;3.65;;;19.40;99.90;;;;;;5046357;28;20534;-67
2022/08/19 06:56:54;;;;;;;9.60;3.42;;;19.50;99.90;;;;;;5055829;28;20059;-66
2022/08/19 06:59:22;;;;;;;9.93;3.65;;;19.50;99.90;;;;;;5044739;28;20060;-67
2022/08/19 07:01:51;;;;;;;8.80;3.35;;;19.50;99.90;;;;;;5049802;28;20036;-67
2022/08/19 07:04:21;;;;;;;7.35;3.10;;;19.60;99.90;;;;;;5037475;28;20040;-68
2022/08/19 07:06:47;;;;;;;8.02;3.15;;;19.60;99.90;;;;;;5047267;28;20609;-67
2022/08/19 07:09:15;;;;;;;8.20;3.45;;;19.70;99.90;;;;;;5043222;28;20041;-68
2022/08/19 07:11:50;;;;;;;8.73;3.13;;;19.70;99.90;;;;;;5032135;28;20033;-66
2022/08/19 07:14:17;;;;;;;5.32;2.42;;;19.80;99.90;;;;;;5060286;28;20038;-67
2022/08/19 07:16:45;;;;;;;7.30;2.78;;;19.80;99.90;;;;;;5049169;28;20168;-67
2022/08/19 07:19:12;;;;;;;9.20;3.03;;;19.90;99.90;;;;;;5038849;28;20483;-68
2022/08/19 07:21:38;;;;;;;12.80;2.50;;;20.00;99.90;;;;;;5028994;28;20478;-68
2022/08/19 07:24:04;;;;;;;7.20;2.38;;;20.10;99.90;;;;;;5039677;28;20073;-67
2022/08/19 07:26:33;;;;;;;6.40;2.78;;;20.20;99.90;;;;;;5038185;28;20745;-68
2022/08/19 07:29:01;;;;;;;5.75;2.30;;;20.20;99.90;;;;;;5049697;28;20036;-68
2022/08/19 07:31:27;;;;;;;7.93;2.65;;;20.30;99.90;;;;;;5048455;28;20052;-68
2022/08/19 07:33:55;;;;;;;7.93;2.38;;;20.30;99.90;;;;;;5048192;28;20195;-68
2022/08/19 07:36:30;;;;;;;6.68;2.20;;;20.20;99.90;;;;;;5047722;28;20036;-68
2022/08/19 07:38:57;;;;;;;4.25;2.00;;;20.20;99.90;;;;;;5043955;28;20395;-68
2022/08/19 07:41:25;;;;;;;8.00;2.30;;;20.20;99.90;;;;;;5037151;28;20040;-68
2022/08/19 07:43:51;;;;;;;6.00;1.95;;;20.20;99.90;;;;;;5041123;28;20021;-68
2022/08/19 07:46:20;;;;;;;5.03;1.33;;;20.20;99.90;;;;;;5048233;28;20103;-67
2022/08/19 07:48:46;;;;;;;7.20;1.38;;;20.20;99.90;;;;;;5045997;28;20037;-68
2022/08/19 07:51:15;;;;;;;8.52;1.98;;;20.20;99.90;;;;;;5043485;28;20021;-67
2022/08/19 07:53:41;;;;;;;6.77;1.60;;;20.10;99.90;;;;;;5044937;28;20399;-67
2022/08/19 07:56:07;;;;;;;4.90;1.60;;;20.10;99.90;;;;;;5044747;28;20262;-68
2022/08/19 07:58:38;;;;;;;6.80;1.60;;;20.10;99.90;;;;;;5045689;28;20060;-68
2022/08/19 08:01:06;;;;;;;6.45;1.63;;;20.10;99.90;;;;;;5044552;28;20056;-67
2022/08/19 08:09:15;;;;;;;3.58;1.50;;;20.20;99.90;;;;;;5043735;28;20032;-68
2022/08/19 08:11:54;;;;;;;5.57;1.75;;;20.30;99.90;;;;;;5044169;28;20033;-67
2022/08/19 08:14:29;;;;;;;4.75;1.75;;;20.40;99.90;;;;;;5043618;28;20028;-67
2022/08/19 08:16:55;;;;;;;6.95;1.65;;;20.50;99.90;;;;;;5041852;28;20064;-68
2022/08/19 08:19:23;;;;;;;4.88;1.48;;;20.70;99.90;;;;;;5046455;28;20041;-67
2022/08/19 08:21:49;;;;;;;5.68;1.40;;;20.90;99.90;;;;;;5042904;28;20037;-67
2022/08/19 08:24:16;;;;;;;4.72;1.20;;;21.10;99.90;;;;;;5046258;28;20037;-68
2022/08/19 08:26:43;;;;;;;4.35;1.30;;;21.30;99.90;;;;;;5046838;28;20073;-68
2022/08/19 08:29:13;;;;;;;6.20;1.38;;;21.30;99.90;;;;;;5051426;28;20032;-69
2022/08/19 08:31:44;;;;;;;3.40;0.95;;;21.30;99.90;;;;;;5051204;28;20116;-68
2022/08/19 08:34:11;;;;;;;3.45;0.90;;;21.40;99.90;;;;;;5046415;28;20029;-68
2022/08/19 08:36:44;;;;;;;4.97;1.00;;;21.50;99.90;;;;;;5045555;28;20029;-68
2022/08/19 08:39:16;;;;;;;3.55;0.80;;;21.60;99.90;;;;;;5059484;28;20094;-68
2022/08/19 08:42:06;;;;;;;4.35;1.08;;;21.60;99.90;;;;;;5044405;28;20396;-68
2022/08/19 08:44:53;;;;;;;4.82;1.35;;;21.60;99.90;;;;;;5042437;28;20108;-67
2022/08/19 08:47:21;;;;;;;4.85;0.90;;;21.50;99.90;;;;;;5036328;28;20420;-67
2022/08/19 08:50:06;;;;;;;4.03;1.27;;;21.50;99.90;;;;;;5043276;28;20573;-68
2022/08/19 08:52:42;;;;;;;4.20;1.08;;;21.40;99.90;;;;;;5044223;28;20040;-68
2022/08/19 08:55:13;;;;;;;3.72;0.80;;;21.40;99.90;;;;;;5036526;28;20032;-69
2022/08/19 08:57:48;;;;;;;2.13;0.60;;;21.40;99.90;;;;;;5035615;28;20033;-67
2022/08/19 09:00:20;;;;;;;2.67;0.73;;;21.40;99.90;;;;;;5046238;28;20498;-68
2022/08/19 09:02:47;;;;;;;4.38;0.70;;;21.40;99.90;;;;;;5042517;28;20033;-68
2022/08/19 09:05:13;;;;;;;2.60;0.60;;;21.40;99.90;;;;;;5048568;28;20040;-68
2022/08/19 09:08:40;;;;;;;2.45;0.95;;;21.40;99.90;;;;;;5046356;28;20756;-68
2022/08/19 09:11:15;;;;;;;4.13;1.00;;;21.40;99.90;;;;;;4999011;28;20146;-69
2022/08/19 09:13:48;;;;;;;2.38;1.10;;;21.40;99.90;;;;;;5022426;28;20061;-68
2022/08/19 09:16:20;;;;;;;3.80;1.10;;;21.30;99.90;;;;;;5023701;28;20522;-68
2022/08/19 09:18:51;;;;;;;5.28;1.33;;;21.20;99.90;;;;;;5015277;28;20034;-68
2022/08/19 09:21:17;;;;;;;3.90;1.23;;;21.20;99.90;;;;;;5023551;28;20103;-68
2022/08/19 09:23:43;;;;;;;4.07;1.45;;;21.10;99.90;;;;;;5006413;28;20578;-68
2022/08/19 09:26:13;;;;;;;4.03;1.50;;;21.00;99.90;;;;;;5022689;28;20518;-68
2022/08/19 09:28:43;;;;;;;5.18;1.20;;;20.90;99.90;;;;;;5015302;28;20030;-67
2022/08/19 09:31:14;;;;;;;2.97;1.35;;;20.80;99.90;;;;;;5014711;28;20029;-67
2022/08/19 09:33:43;;;;;;;4.32;1.50;;;20.80;99.90;;;;;;5015600;28;20120;-67
2022/08/19 09:36:11;;;;;;;5.25;1.83;;;20.80;99.90;;;;;;5019051;28;20476;-68
2022/08/19 09:38:41;;;;;;;5.30;1.60;;;20.70;99.90;;;;;;5015693;28;20048;-67
2022/08/19 09:41:11;;;;;;;7.47;1.98;;;20.70;99.90;;;;;;5005903;28;20282;-68
2022/08/19 09:43:36;;;;;;;6.95;2.38;;;20.60;99.90;;;;;;5021104;28;20091;-68
2022/08/19 09:46:05;;;;;;;7.00;2.30;;;20.60;99.90;;;;;;5038009;28;20044;-68
2022/08/19 09:48:35;;;;;;;6.10;1.95;;;20.60;99.90;;;;;;5051038;28;20502;-69
2022/08/19 09:51:09;;;;;;;6.53;2.30;;;20.70;99.90;;;;;;5052405;28;20032;-69
2022/08/19 09:53:35;;;;;;;6.65;2.08;;;20.70;99.90;;;;;;5045305;28;20037;-68
2022/08/19 09:56:02;;;;;;;7.72;2.38;;;20.80;99.90;;;;;;5040419;28;20390;-68
2022/08/19 09:58:30;;;;;;;7.55;2.13;;;20.80;99.90;;;;;;5045354;28;20419;-68
2022/08/19 10:00:58;;;;;;;5.07;1.88;;;20.90;99.90;;;;;;5038803;28;20415;-68
2022/08/19 10:03:24;;;;;;;5.63;2.05;;;21.00;99.90;;;;;;5040178;28;20091;-68
2022/08/19 10:05:50;;;;;;;10.27;2.33;;;21.30;99.90;;;;;;5044121;28;20040;-68
2022/08/19 10:08:22;;;;;;;8.07;2.00;;;21.40;99.90;;;;;;5039977;28;20561;-68
2022/08/19 10:10:49;;;;;;;7.85;1.52;;;21.70;99.90;;;;;;5031301;28;20044;-68
2022/08/19 10:13:17;;;;;;;7.43;1.55;;;21.90;99.90;;;;;;5031117;28;20178;-68
2022/08/19 10:15:43;;;;;;;7.40;1.95;;;22.00;99.90;;;;;;5047269;28;20410;-68
2022/08/19 10:18:09;;;;;;;7.63;1.80;;;22.00;99.90;;;;;;5051061;28;20051;-68
2022/08/19 10:20:38;;;;;;;4.72;1.33;;;21.90;99.90;;;;;;5050524;28;20049;-68
2022/08/19 10:23:04;;;;;;;7.10;1.55;;;21.90;99.90;;;;;;5049487;28;20388;-69
2022/08/19 10:25:31;;;;;;;4.22;1.30;;;21.90;99.90;;;;;;5045767;28;20499;-68
2022/08/19 10:27:57;;;;;;;5.90;1.23;;;22.00;99.90;;;;;;5029369;28;20033;-68
2022/08/19 10:30:22;;;;;;;4.50;0.90;;;22.20;99.90;;;;;;5030718;28;20039;-67
2022/08/19 10:32:48;;;;;;;6.70;1.25;;;22.60;99.90;;;;;;5029534;28;20041;-68
2022/08/19 10:35:14;;;;;;;5.40;1.10;;;22.90;99.90;;;;;;5030537;28;20037;-68
2022/08/19 10:37:40;;;;;;;4.47;1.02;;;23.20;99.90;;;;;;5029120;28;20033;-68
2022/08/19 10:40:07;;;;;;;2.97;0.77;;;23.30;99.90;;;;;;5030568;28;20594;-69
2022/08/19 10:42:34;;;;;;;3.60;0.82;;;23.40;99.90;;;;;;5030511;28;20049;-68
2022/08/19 10:45:01;;;;;;;4.55;0.80;;;23.40;99.90;;;;;;5032034;28;20136;-68
2022/08/19 10:47:26;;;;;;;3.92;0.88;;;23.30;99.90;;;;;;5030354;28;20033;-67
2022/08/19 10:52:43;;;;;;;2.75;0.80;;;22.70;99.90;;;;;;5050589;28;20048;-68
2022/08/19 10:57:53;;;;;;;3.60;1.10;;;21.80;99.90;;;;;;5050183;28;20048;-68
2022/08/19 11:00:21;;;;;;;5.90;1.25;;;21.60;99.90;;;;;;5050040;28;20057;-69
2022/08/19 11:02:46;;;;;;;4.90;1.20;;;21.40;99.90;;;;;;5050068;28;20029;-68
2022/08/19 11:05:14;;;;;;;4.25;0.80;;;21.30;99.90;;;;;;5050658;28;20031;-68
2022/08/19 11:07:40;;;;;;;4.13;1.00;;;21.10;99.90;;;;;;5050094;28;20025;-69
2022/08/19 11:10:09;;;;;;;4.38;1.30;;;21.10;99.90;;;;;;5048164;28;20033;-68
2022/08/19 11:12:39;;;;;;;2.70;0.70;;;21.30;99.90;;;;;;5050015;28;20051;-67
2022/08/19 11:15:05;;;;;;;;;;;21.40;99.90;;;;;;5048439;28;20446;-66
2022/08/19 11:17:31;;;;;;;2.97;0.57;;;21.70;99.90;;;;;;5058207;28;19912;-68
2022/08/19 11:19:57;;;;;;;3.00;0.65;;;21.80;99.90;;;;;;5048247;28;20134;-67
2022/08/19 11:22:23;;;;;;;2.38;0.45;;;22.00;99.90;;;;;;5032285;28;20029;-68
2022/08/19 11:24:48;;;;;;;1.33;0.40;;;22.10;99.90;;;;;;5029692;28;20032;-68
2022/08/19 11:27:14;;;;;;;2.00;0.40;;;22.30;99.90;;;;;;5029358;28;20110;-70
2022/08/19 11:29:40;;;;;;;0.50;0.25;;;22.30;99.90;;;;;;5028177;28;20171;-68
2022/08/19 11:32:09;;;;;;;1.58;0.40;;;22.20;99.90;;;;;;5044957;28;20986;-69
2022/08/19 11:34:35;;;;;;;2.70;0.55;;;22.00;99.90;;;;;;5046667;28;20040;-69
2022/08/19 11:37:03;;;;;;;1.13;0.40;;;21.80;99.90;;;;;;5047734;28;20044;-68
2022/08/19 11:39:31;;;;;;;2.35;0.40;;;21.80;99.90;;;;;;5049258;28;20024;-68
2022/08/19 11:42:54;;;;;;;1.02;0.40;;;21.70;99.90;;;;;;5047616;28;20037;-68
2022/08/19 11:44:47;;;;;;;3.15;0.47;;;21.50;99.90;;;;;;5047701;28;20493;-68
2022/08/19 11:47:13;;;;;;;2.85;0.50;;;21.40;99.90;;;;;;5030607;28;20030;-68
2022/08/19 11:49:38;;;;;;;2.65;0.50;;;21.30;99.90;;;;;;5029335;28;20034;-68
2022/08/19 11:52:04;;;;;;;1.58;0.57;;;21.20;99.90;;;;;;5029954;28;20036;-68
2022/08/19 11:54:30;;;;;;;3.80;1.10;;;21.10;99.90;;;;;;5029374;28;20025;-68
2022/08/19 11:56:56;;;;;;;3.08;1.25;;;20.80;99.90;;;;;;5028818;28;20480;-69
2022/08/19 11:59:21;;;;;;;3.30;1.17;;;20.70;99.90;;;;;;5027376;28;20067;-68
2022/08/19 12:01:47;;;;;;;2.67;1.10;;;20.60;99.90;;;;;;5030778;28;20028;-68
2022/08/19 12:04:13;;;;;;;2.20;0.95;;;20.50;99.90;;;;;;5047381;28;20521;-68
2022/08/19 12:06:40;;;;;;;2.40;1.00;;;20.30;99.90;;;;;;5048825;28;20033;-68
2022/08/19 12:09:09;;;;;;;2.78;0.82;;;20.20;99.90;;;;;;5048527;28;20029;-68
2022/08/19 12:11:36;;;;;;;3.47;0.70;;;20.10;99.90;;;;;;5048447;28;20055;-69
2022/08/19 12:14:02;;;;;;;2.50;0.90;;;20.00;99.90;;;;;;5048825;28;20036;-69
2022/08/19 12:16:31;;;;;;;2.47;0.98;;;19.90;99.90;;;;;;5048503;28;20053;-68
2022/08/19 12:18:58;;;;;;;4.55;1.17;;;19.80;99.90;;;;;;5047306;28;20787;-68
2022/08/19 12:21:28;;;;;;;3.08;0.90;;;19.80;99.90;;;;;;5058493;28;20047;-68
2022/08/19 12:23:56;;;;;;;5.18;0.90;;;19.80;99.90;;;;;;5048475;28;20032;-68
2022/08/19 12:26:22;;;;;;;3.53;1.00;;;19.70;99.90;;;;;;5043336;28;20072;-68
2022/08/19 12:28:48;;;;;;;2.88;1.00;;;19.70;99.90;;;;;;5028653;28;20130;-69
2022/08/19 12:31:14;;;;;;;4.45;0.98;;;19.80;99.90;;;;;;5028624;28;20503;-68
2022/08/19 12:33:41;;;;;;;4.80;1.17;;;19.80;99.90;;;;;;5028495;28;20047;-67
2022/08/19 12:36:10;;;;;;;4.82;1.15;;;19.80;99.90;;;;;;5028624;28;20033;-68
2022/08/19 12:38:36;;;;;;;5.10;1.25;;;19.90;99.90;;;;;;5037528;28;20043;-67
2022/08/19 12:41:05;;;;;;;6.60;1.27;;;19.90;99.90;;;;;;5045788;28;20044;-69
2022/08/19 12:43:32;;;;;;;5.38;1.10;;;19.80;99.90;;;;;;5037969;28;20238;-68
2022/08/19 12:45:57;;;;;;;6.00;1.48;;;19.90;99.90;;;;;;5040439;28;20037;-68
2022/08/19 12:48:23;;;;;;;6.28;1.60;;;20.00;99.90;;;;;;5035553;28;20025;-70
2022/08/19 12:50:49;;;;;;;5.85;1.40;;;20.10;99.90;;;;;;5043981;28;20036;-68
2022/08/19 12:53:15;;;;;;;5.88;1.70;;;20.20;99.90;;;;;;5039932;28;20036;-68
2022/08/19 12:55:42;;;;;;;8.65;2.03;;;20.20;99.90;;;;;;5047741;28;20075;-69
2022/08/19 12:58:08;;;;;;;6.57;1.80;;;20.30;99.90;;;;;;5044556;28;20086;-69
2022/08/19 13:00:34;;;;;;;6.97;1.90;;;20.30;99.90;;;;;;5045836;28;20511;-68
2022/08/19 13:03:00;;;;;;;7.38;1.85;;;20.50;99.90;;;;;;5039707;28;20032;-68
2022/08/19 13:05:30;;;;;;;10.10;1.95;;;20.60;99.90;;;;;;5042966;28;20501;-69
2022/08/19 13:07:59;;;;;;;10.20;2.17;;;20.70;99.90;;;;;;5045275;28;20095;-68
2022/08/19 13:10:34;;;;;;;6.15;1.60;;;20.70;99.90;;;;;;5042197;28;20079;-68
2022/08/19 13:13:09;;;;;;;10.02;1.88;;;20.70;99.90;;;;;;5048831;28;20048;-68